Terminal Aerodrome Forecast
Issued by NWS

Home | Current Version | Previous Version | Text Only | Print | Product List | Glossary On
Versions: 1 2 3 4 5 6 7 8 9 10 11 12 13 14 15 16 17 18 19 20 21 22 23 24 25 26 27 28 29 30
000
FTPA31 PHFO 042000 AAB
TAFLNY
TAF AMD
PHNY 042058Z 0421/0518 04012G18KT P6SM FEW025 BKN040
      TEMPO 0421/0424 VRB06KT -SHRA BKN025 OVC040
     FM050600 05009KT P6SM SCT040
      AMD NOT SKED=

USA.gov is the U.S. government's official web portal to all federal, state and local government web resources and services.